Aérodrome :
LOGIN :

S'inscrire | Disclaimer

   EN    FR    IT 

 










Légende :    VFR   VFR Marginal   IFR   IFR Intensif   IFR Très Intensif
Visi : 
Plafond : 
>= 8 km
>= 3000ft
5 à 8 km
1000 à 3000 ft
1500m à 5 km
500 à 1000 ft
800 à 1500m
200 à 500 ft
< 800m
< 200 ft
Symboles :   Orages  Brouillard  Fortes neiges  Fortes précipitations  Vent > 20 kt
SIGMETs :   Divers  Orages  Givrage  Turbulence  Onde Orograph.  Cendres Volcan.






- Altitude de l'aérodrome : 65 ft
- Code IATA : PIK


EGPK - Glasgow Prestwick

DERNIER METAR :
  • 221920Z 26014KT 7000 -RADZ SCT010 BKN033 14/12 Q0998

METARs EXPIRÉS :
  • 221850Z 21012KT 9000 -DZ FEW008 BKN020 14/13 Q0998
  • 221820Z 21009KT 5000 -DZ FEW008 BKN020 14/12 Q0998
  • 221750Z 21012KT 5000 -DZ BKN026 14/12 Q0998
  • 221720Z 19011KT 9999 BKN026 15/12 Q0998
  • 221650Z 19013KT 9999 BKN026 15/11 Q0998
  • 221620Z 19016KT 9999 BKN026 15/11 Q0999

TAF TAF EGPK
Valide du 22 à 18h jusqu'au 23 à 18h UTC


221700Z 2218/2318 19014KT 9999 FEW010 SCT020
TEMPO 2218/2223 6000 RA BKN012
PROB40
TEMPO 2218/2222 4000 RADZ +RA BKN006
PROB30
TEMPO 2218/2220 20020G30KT
BECMG 2219/2222 29008KT
PROB30
TEMPO 2312/2318 8000 -SHRA



MET'MAP, la Météo Aéronautique d'un coup d'oeil ! - Copyright ORBIFLY Décembre 2007 - Disclaimer

ORBIFLY MET'MAP TEAM :

Programmation & Développement : Alexandra Zaïnal
Sur une idée originale de : Baudouin d'Aumeries
Assistance à la programmation : Marc-Olivier Méhu
Soutien technique & logistique : Manuel Goepfert

Contact : metmap@orbifly.com




SOURCES & CREDITS :

   NOAA